Terminal Aerodrome Forecast
Issued by NWS

Home | Current Version | Previous Version | Text Only | Print | Product List | Glossary On
Versions: 1 2 3 4 5 6 7 8 9 10 11 12 13 14 15
000
FTUS41 KILN 050500
TAFLCK
TAF
KLCK 050534Z 0506/0606 VRB03KT P6SM -SHRA VCTS OVC060CB
      TEMPO 0506/0509 4SM -SHRA OVC040
     FM051000 VRB03KT P6SM SCT060 BKN100
     FM051500 22010KT P6SM SCT060
     FM060000 21005KT P6SM SCT080=

USA.gov is the U.S. government's official web portal to all federal, state and local government web resources and services.